createdAt,value
2018-12-02T00:03:15.359Z,17.70
2018-12-02T00:08:18.547Z,17.60
2018-12-02T00:13:21.801Z,17.50
2018-12-02T00:18:25.019Z,17.40
2018-12-02T00:23:28.263Z,17.40
2018-12-02T00:28:31.474Z,17.40
2018-12-02T00:33:34.722Z,17.30
2018-12-02T00:38:37.921Z,17.30
2018-12-02T00:43:41.119Z,17.20
2018-12-02T00:48:44.355Z,17.20
2018-12-02T00:53:47.620Z,17.10
2018-12-02T00:58:50.824Z,17.10
2018-12-02T01:03:54.036Z,17.00
2018-12-02T01:08:57.257Z,17.00
2018-12-02T01:14:00.463Z,17.00
2018-12-02T01:19:03.655Z,16.90
2018-12-02T01:24:07.123Z,16.90
2018-12-02T01:29:10.703Z,16.90
2018-12-02T01:34:13.939Z,16.80
2018-12-02T01:39:17.154Z,16.70
2018-12-02T01:44:20.380Z,16.70
2018-12-02T01:49:23.635Z,16.60
2018-12-02T01:54:26.845Z,16.60
2018-12-02T01:59:30.885Z,16.60
2018-12-02T02:04:34.104Z,16.50
2018-12-02T02:09:37.381Z,16.50
2018-12-02T02:14:40.684Z,16.40
2018-12-02T02:19:44.598Z,16.40
2018-12-02T02:24:47.871Z,16.40
2018-12-02T02:29:51.199Z,16.40
2018-12-02T02:34:54.432Z,16.40
2018-12-02T02:39:57.648Z,16.40
2018-12-02T02:45:00.896Z,16.30
2018-12-02T02:50:12.334Z,16.30
2018-12-02T02:55:15.547Z,16.30
2018-12-02T03:00:20.613Z,16.30
2018-12-02T03:05:23.881Z,16.20
2018-12-02T03:10:27.085Z,16.20
2018-12-02T03:15:30.323Z,16.20
2018-12-02T03:20:33.592Z,16.20
2018-12-02T03:25:36.803Z,16.20
2018-12-02T03:30:40.210Z,16.20
2018-12-02T03:35:43.579Z,16.20
2018-12-02T03:40:46.786Z,16.20
2018-12-02T03:45:50.053Z,16.20
2018-12-02T03:50:53.286Z,16.10
2018-12-02T03:55:56.525Z,16.10
2018-12-02T04:00:59.713Z,16.10
2018-12-02T04:06:02.967Z,16.10
2018-12-02T04:11:06.279Z,16.10
2018-12-02T04:16:09.595Z,16.10
2018-12-02T04:21:12.865Z,16.10
2018-12-02T04:26:16.080Z,16.00
2018-12-02T04:31:19.293Z,16.10
2018-12-02T04:36:22.477Z,16.00
2018-12-02T04:41:25.717Z,16.00
2018-12-02T04:46:28.980Z,16.00
2018-12-02T04:51:32.190Z,16.00
2018-12-02T04:56:35.432Z,16.10
2018-12-02T05:01:38.641Z,16.50
2018-12-02T05:06:41.843Z,16.90
2018-12-02T05:11:45.052Z,17.30
2018-12-02T05:16:48.310Z,17.70
2018-12-02T05:21:51.654Z,17.90
2018-12-02T05:26:54.832Z,18.00
2018-12-02T05:31:58.073Z,18.30
2018-12-02T05:37:01.253Z,18.40
2018-12-02T05:42:09.830Z,18.60
2018-12-02T05:47:13.090Z,18.80
2018-12-02T05:52:16.347Z,18.90
2018-12-02T05:57:19.675Z,18.80
2018-12-02T06:02:22.839Z,18.80
2018-12-02T06:07:26.092Z,18.80
2018-12-02T06:12:29.359Z,18.70
2018-12-02T06:17:32.637Z,18.50
2018-12-02T06:22:36.048Z,18.70
2018-12-02T06:27:39.432Z,19.00
2018-12-02T06:32:42.733Z,19.20
2018-12-02T06:37:45.982Z,19.20
2018-12-02T06:42:49.643Z,19.20
2018-12-02T06:47:53.021Z,19.10
2018-12-02T06:52:56.991Z,19.10
2018-12-02T06:58:07.191Z,19.00
2018-12-02T07:03:36.028Z,19.00
2018-12-02T07:08:39.251Z,18.90
2018-12-02T07:13:42.480Z,19.20
2018-12-02T07:18:49.333Z,19.30
2018-12-02T07:23:54.468Z,19.20
2018-12-02T07:28:57.700Z,19.10
2018-12-02T07:34:00.885Z,19.10
2018-12-02T07:41:16.576Z,19.10
2018-12-02T07:46:19.957Z,19.10
2018-12-02T07:51:23.133Z,19.00
2018-12-02T07:56:26.405Z,19.00
2018-12-02T08:01:31.116Z,19.20
2018-12-02T08:06:34.423Z,19.20
2018-12-02T08:11:37.701Z,19.20
2018-12-02T08:16:40.961Z,19.40
2018-12-02T08:21:44.315Z,19.40
2018-12-02T08:26:47.565Z,19.40
2018-12-02T08:31:50.793Z,19.40
2018-12-02T08:36:54.061Z,19.40
2018-12-02T08:41:57.295Z,19.40
2018-12-02T08:47:00.567Z,19.30
2018-12-02T08:52:04.059Z,19.30
2018-12-02T08:57:07.416Z,19.20
2018-12-02T09:02:10.657Z,19.20
2018-12-02T09:07:13.864Z,19.20
2018-12-02T09:12:17.139Z,19.20
2018-12-02T09:17:20.881Z,19.40
2018-12-02T09:22:24.168Z,19.70
2018-12-02T09:27:27.465Z,19.70
2018-12-02T09:32:30.638Z,19.60
2018-12-02T09:37:34.211Z,19.50
2018-12-02T09:42:37.576Z,19.40
2018-12-02T09:47:41.388Z,19.40
2018-12-02T09:52:44.799Z,19.30
2018-12-02T09:57:48.109Z,19.20
2018-12-02T10:02:51.323Z,19.10
2018-12-02T10:07:57.541Z,19.50
2018-12-02T10:13:03.183Z,19.70
2018-12-02T10:18:07.230Z,19.80
2018-12-02T10:23:10.565Z,19.80
2018-12-02T10:28:13.922Z,19.80
2018-12-02T10:33:18.360Z,19.70
2018-12-02T10:38:21.719Z,19.60
2018-12-02T10:43:24.987Z,19.60
2018-12-02T10:48:28.214Z,19.50
2018-12-02T10:53:31.831Z,19.60
2018-12-02T10:58:35.537Z,19.80
2018-12-02T11:03:38.836Z,20.00
2018-12-02T11:08:42.367Z,20.00
2018-12-02T11:13:45.723Z,19.80
2018-12-02T11:18:49.022Z,19.70
2018-12-02T11:23:52.414Z,19.60
2018-12-02T11:28:55.655Z,19.60
2018-12-02T11:33:58.982Z,19.50
2018-12-02T11:39:02.468Z,19.40
2018-12-02T11:44:06.164Z,19.40
2018-12-02T11:49:09.411Z,19.60
2018-12-02T11:54:13.007Z,19.90
2018-12-02T11:59:16.277Z,20.00
2018-12-02T12:04:19.532Z,19.90
2018-12-02T12:09:23.032Z,19.80
2018-12-02T12:14:26.262Z,19.70
2018-12-02T12:19:29.552Z,19.70
2018-12-02T12:24:32.834Z,19.60
2018-12-02T12:29:36.163Z,19.40
2018-12-02T12:34:39.464Z,19.40
2018-12-02T12:39:42.673Z,19.30
2018-12-02T12:44:46.011Z,19.20
2018-12-02T12:49:49.420Z,19.10
2018-12-02T12:54:52.738Z,19.10
2018-12-02T12:59:56.115Z,19.00
2018-12-02T13:04:59.425Z,19.00
2018-12-02T13:10:02.826Z,18.90
2018-12-02T13:15:09.682Z,18.80
2018-12-02T13:20:18.171Z,18.70
2018-12-02T13:25:21.467Z,18.70
2018-12-02T13:30:24.845Z,18.60
2018-12-02T13:35:28.157Z,18.60
2018-12-02T13:40:31.367Z,18.50
2018-12-02T13:45:34.723Z,18.40
2018-12-02T13:50:39.105Z,18.30
2018-12-02T13:55:42.349Z,18.30
2018-12-02T14:00:45.612Z,18.20
2018-12-02T14:05:49.763Z,18.20
2018-12-02T14:10:53.253Z,18.10
2018-12-02T14:17:06.023Z,18.00
2018-12-02T14:22:09.710Z,18.00
2018-12-02T14:27:13.659Z,17.90
2018-12-02T14:32:18.302Z,17.90
2018-12-02T14:37:22.627Z,17.90
2018-12-02T14:42:25.912Z,17.90
2018-12-02T14:47:29.189Z,17.90
2018-12-02T14:52:32.698Z,17.80
2018-12-02T14:57:36.030Z,17.80
2018-12-02T15:02:39.304Z,17.70
2018-12-02T15:07:44.293Z,17.70
2018-12-02T15:12:48.334Z,17.70
2018-12-02T15:17:51.683Z,17.70
2018-12-02T15:22:54.973Z,17.60
2018-12-02T15:27:59.332Z,17.50
2018-12-02T15:33:02.755Z,17.50
2018-12-02T15:38:06.421Z,17.40
2018-12-02T15:43:09.786Z,17.40
2018-12-02T15:48:13.043Z,17.40
2018-12-02T15:53:16.623Z,17.30
2018-12-02T15:58:20.346Z,17.30
2018-12-02T16:03:23.645Z,17.30
2018-12-02T16:08:26.975Z,17.20
2018-12-02T16:13:30.346Z,17.20
2018-12-02T16:18:33.575Z,17.20
2018-12-02T16:23:36.930Z,17.20
2018-12-02T16:28:40.290Z,17.20
2018-12-02T16:33:43.567Z,17.10
2018-12-02T16:38:46.913Z,17.10
2018-12-02T16:43:50.537Z,17.10
2018-12-02T16:48:53.834Z,17.10
2018-12-02T16:53:57.339Z,17.00
2018-12-02T16:59:11.842Z,17.00
2018-12-02T17:04:15.693Z,17.00
2018-12-02T17:09:19.297Z,17.00
2018-12-02T17:14:22.749Z,17.30
2018-12-02T17:19:26.398Z,17.60
2018-12-02T17:24:29.658Z,17.80
2018-12-02T17:29:33.388Z,17.90
2018-12-02T17:34:36.656Z,18.10
2018-12-02T17:39:45.040Z,18.20
2018-12-02T17:44:48.844Z,18.20
2018-12-02T17:49:52.211Z,18.20
2018-12-02T17:54:55.616Z,18.20
2018-12-02T17:59:59.002Z,18.20
2018-12-02T18:05:02.368Z,18.20
2018-12-02T18:10:09.265Z,18.20
2018-12-02T18:15:14.045Z,18.20
2018-12-02T18:20:18.295Z,18.10
2018-12-02T18:25:22.290Z,18.10
2018-12-02T18:30:27.217Z,18.00
2018-12-02T18:35:44.338Z,18.00
2018-12-02T18:40:51.868Z,17.90
2018-12-02T18:45:55.514Z,17.90
2018-12-02T18:50:58.875Z,17.90
2018-12-02T18:56:02.247Z,17.80
2018-12-02T19:01:05.823Z,17.80
2018-12-02T19:06:09.901Z,17.80
2018-12-02T19:11:13.445Z,17.80
2018-12-02T19:16:17.619Z,17.80
2018-12-02T19:21:23.361Z,17.90
2018-12-02T19:26:26.980Z,17.90
2018-12-02T19:31:30.310Z,17.90
2018-12-02T19:36:35.993Z,17.80
2018-12-02T19:41:39.292Z,17.80
2018-12-02T19:46:42.798Z,17.80
2018-12-02T19:51:46.199Z,17.70
2018-12-02T19:56:50.544Z,17.70
2018-12-02T20:01:54.185Z,17.70
2018-12-02T20:06:58.315Z,17.70
2018-12-02T20:12:01.871Z,17.70
2018-12-02T20:17:05.802Z,17.70
2018-12-02T20:22:09.373Z,17.60
2018-12-02T20:27:13.354Z,17.60
2018-12-02T20:32:19.089Z,17.60
2018-12-02T20:37:23.575Z,17.60
2018-12-02T20:42:29.013Z,17.60
2018-12-02T20:47:35.656Z,17.60
2018-12-02T20:52:39.322Z,17.60
2018-12-02T20:57:43.432Z,17.60
2018-12-02T21:02:53.944Z,17.60
2018-12-02T21:07:57.481Z,17.60
2018-12-02T21:13:01.337Z,17.60
2018-12-02T21:18:04.744Z,17.60
2018-12-02T21:23:08.230Z,17.60
2018-12-02T21:28:12.434Z,17.50
2018-12-02T21:33:15.952Z,17.50
2018-12-02T21:38:19.374Z,17.50
2018-12-02T21:43:23.289Z,17.40
2018-12-02T21:48:30.064Z,17.40
2018-12-02T21:53:33.444Z,17.40
2018-12-02T21:58:37.308Z,17.40
2018-12-02T22:03:40.859Z,17.40
2018-12-02T22:08:44.401Z,17.40
2018-12-02T22:13:47.684Z,17.30
2018-12-02T22:18:51.417Z,17.30
2018-12-02T22:23:54.968Z,17.30
2018-12-02T22:28:58.367Z,17.30
2018-12-02T22:34:01.699Z,17.30
2018-12-02T22:39:07.425Z,17.30
2018-12-02T22:44:10.702Z,17.30
2018-12-02T22:49:14.008Z,17.30
2018-12-02T22:54:17.547Z,17.20
2018-12-02T22:59:20.806Z,17.20
2018-12-02T23:04:24.161Z,17.20
2018-12-02T23:09:27.508Z,17.20
2018-12-02T23:14:30.743Z,17.20
2018-12-02T23:19:34.218Z,17.20
2018-12-02T23:24:37.567Z,17.20
2018-12-02T23:29:40.979Z,17.20
2018-12-02T23:34:44.182Z,17.20
2018-12-02T23:39:47.448Z,17.10
2018-12-02T23:44:51.491Z,17.10
2018-12-02T23:49:54.694Z,17.10
2018-12-02T23:54:57.938Z,17.10
